Time;durP1;ratioP1;P1;durP2;ratioP2;P2;SDS_P1;SDS_P2;PMS_P1;PMS_P2;Temp;Humidity;BMP_temperature;BMP_pressure;BME280_temperature;BME280_humidity;BME280_pressure;Samples;Min_cycle;Max_cycle;Signal;HPM_P1;HPM_P2
2022/02/16 00:02:08;;;;;;;95.43;50.40;;;;;;;;;;751786;183;626690;-60
2022/02/16 00:04:33;;;;;;;89.70;48.07;;;;;;;;;;754124;185;615767;-60
2022/02/16 00:06:59;;;;;;;98.13;51.47;;;;;;;;;;755769;183;629330;-60
2022/02/16 00:09:25;;;;;;;81.67;45.47;;;;;;;;;;750546;184;617234;-60
2022/02/16 00:11:51;;;;;;;86.80;47.87;;;;;;;;;;758638;183;635416;-60
2022/02/16 00:14:16;;;;;;;89.70;47.13;;;;;;;;;;759373;183;620242;-61
2022/02/16 00:16:42;;;;;;;74.78;43.53;;;;;;;;;;755141;183;614772;-60
2022/02/16 00:19:08;;;;;;;74.97;42.70;;;;;;;;;;755250;183;624010;-60
2022/02/16 00:21:34;;;;;;;80.90;46.15;;;;;;;;;;750421;184;617286;-61
2022/02/16 00:24:00;;;;;;;100.47;47.57;;;;;;;;;;752140;184;618629;-61
2022/02/16 00:26:26;;;;;;;98.33;47.40;;;;;;;;;;750204;184;634600;-61
2022/02/16 00:28:51;;;;;;;89.40;47.23;;;;;;;;;;747668;184;674348;-61
2022/02/16 00:31:18;;;;;;;98.17;47.60;;;;;;;;;;750591;183;622791;-60
2022/02/16 00:33:43;;;;;;;89.97;47.40;;;;;;;;;;760405;184;626183;-60
2022/02/16 00:36:09;;;;;;;83.10;43.50;;;;;;;;;;760109;184;619639;-60
2022/02/16 00:38:35;;;;;;;77.37;43.30;;;;;;;;;;751051;183;626924;-60
2022/02/16 00:41:01;;;;;;;89.87;46.73;;;;;;;;;;749347;183;618910;-61
2022/02/16 00:43:27;;;;;;;80.23;42.50;;;;;;;;;;754925;184;630224;-61
2022/02/16 00:45:53;;;;;;;79.67;45.67;;;;;;;;;;748931;185;633542;-61
2022/02/16 00:48:19;;;;;;;83.37;41.57;;;;;;;;;;752144;184;633322;-61
2022/02/16 00:50:44;;;;;;;74.87;43.03;;;;;;;;;;755355;186;621251;-61
2022/02/16 00:53:10;;;;;;;82.63;42.57;;;;;;;;;;752337;184;624349;-61
2022/02/16 00:55:36;;;;;;;72.50;42.33;;;;;;;;;;758068;184;625737;-61
2022/02/16 00:58:05;;;;;;;76.23;41.00;;;;;;;;;;757913;184;642827;-60
2022/02/16 01:00:29;;;;;;;83.10;43.87;;;;;;;;;;752388;186;630944;-61
2022/02/16 01:02:55;;;;;;;68.43;39.23;;;;;;;;;;757638;181;842949;-61
2022/02/16 01:05:20;;;;;;;69.25;41.78;;;;;;;;;;766968;183;639748;-61
2022/02/16 01:07:46;;;;;;;75.37;39.93;;;;;;;;;;769680;183;619311;-61
2022/02/16 01:10:12;;;;;;;68.20;38.67;;;;;;;;;;767172;183;636866;-62
2022/02/16 01:12:38;;;;;;;65.97;39.03;;;;;;;;;;763037;183;637482;-61
2022/02/16 01:15:04;;;;;;;68.73;39.60;;;;;;;;;;768385;184;630888;-62
2022/02/16 01:17:30;;;;;;;63.23;37.10;;;;;;;;;;757752;184;624529;-62
2022/02/16 01:19:56;;;;;;;59.40;34.90;;;;;;;;;;752809;184;629403;-62
2022/02/16 01:22:22;;;;;;;65.72;38.38;;;;;;;;;;759437;184;627152;-61
2022/02/16 01:24:48;;;;;;;62.40;37.07;;;;;;;;;;769540;181;631223;-62
2022/02/16 01:27:14;;;;;;;59.67;37.50;;;;;;;;;;759978;183;634671;-61
2022/02/16 01:29:40;;;;;;;68.17;40.07;;;;;;;;;;753556;184;630572;-62
2022/02/16 01:32:06;;;;;;;67.07;38.47;;;;;;;;;;760769;184;615564;-61
2022/02/16 01:34:32;;;;;;;66.53;40.50;;;;;;;;;;755162;183;623355;-61
2022/02/16 01:36:57;;;;;;;69.50;36.63;;;;;;;;;;757655;183;644901;-62
2022/02/16 01:39:23;;;;;;;70.93;38.80;;;;;;;;;;759626;184;623976;-62
2022/02/16 01:41:52;;;;;;;50.03;34.50;;;;;;;;;;758825;184;625793;-62
2022/02/16 01:44:15;;;;;;;68.60;37.90;;;;;;;;;;753711;185;624601;-62
2022/02/16 01:46:47;;;;;;;64.67;38.17;;;;;;;;;;755871;185;630220;-61
2022/02/16 01:49:12;;;;;;;62.27;38.60;;;;;;;;;;766668;184;615044;-61
2022/02/16 01:51:38;;;;;;;62.43;37.03;;;;;;;;;;761954;184;630373;-63
2022/02/16 01:54:04;;;;;;;66.20;35.97;;;;;;;;;;753853;184;616711;-62
2022/02/16 01:56:30;;;;;;;71.40;37.73;;;;;;;;;;764229;184;628695;-62
2022/02/16 01:58:56;;;;;;;64.60;35.43;;;;;;;;;;761155;184;617827;-62
2022/02/16 02:01:22;;;;;;;65.73;36.60;;;;;;;;;;756400;184;628769;-61
2022/02/16 02:03:47;;;;;;;58.00;34.47;;;;;;;;;;757512;184;629746;-62
2022/02/16 02:06:14;;;;;;;59.70;36.67;;;;;;;;;;754121;184;668415;-61
2022/02/16 02:08:39;;;;;;;58.47;34.77;;;;;;;;;;751281;184;616945;-61
2022/02/16 02:11:06;;;;;;;56.50;33.67;;;;;;;;;;755264;184;635787;-60
2022/02/16 02:13:31;;;;;;;58.83;31.67;;;;;;;;;;751091;184;614793;-62
2022/02/16 02:15:57;;;;;;;54.80;32.77;;;;;;;;;;753100;183;626415;-62
2022/02/16 02:18:23;;;;;;;62.70;37.07;;;;;;;;;;755665;183;630125;-60
2022/02/16 02:20:48;;;;;;;63.97;34.83;;;;;;;;;;760452;183;625002;-63
2022/02/16 02:23:14;;;;;;;61.80;34.63;;;;;;;;;;755359;184;624805;-61
2022/02/16 02:25:42;;;;;;;59.40;35.40;;;;;;;;;;752309;183;614541;-62
2022/02/16 02:28:08;;;;;;;58.00;36.40;;;;;;;;;;755142;183;628343;-61
2022/02/16 02:30:33;;;;;;;54.40;34.43;;;;;;;;;;751810;183;637540;-62
2022/02/16 02:32:59;;;;;;;53.40;32.33;;;;;;;;;;752448;183;617457;-62
2022/02/16 02:35:26;;;;;;;53.50;35.40;;;;;;;;;;759133;183;632282;-61
2022/02/16 02:37:51;;;;;;;57.23;34.80;;;;;;;;;;776025;179;618713;-62
2022/02/16 02:40:17;;;;;;;64.73;34.27;;;;;;;;;;756681;183;626536;-62
2022/02/16 02:42:43;;;;;;;49.37;33.37;;;;;;;;;;752088;185;633804;-61
2022/02/16 02:45:09;;;;;;;54.67;30.30;;;;;;;;;;757253;184;615139;-62
2022/02/16 02:47:35;;;;;;;58.97;35.00;;;;;;;;;;761797;184;618984;-61
2022/02/16 02:50:01;;;;;;;53.13;32.47;;;;;;;;;;753408;184;633835;-61
2022/02/16 02:52:27;;;;;;;59.03;35.53;;;;;;;;;;763372;184;635093;-62
2022/02/16 02:54:52;;;;;;;67.80;35.90;;;;;;;;;;757093;184;630935;-63
2022/02/16 02:57:18;;;;;;;58.77;33.40;;;;;;;;;;755070;184;626708;-62
2022/02/16 02:59:44;;;;;;;58.97;33.83;;;;;;;;;;762498;183;622002;-61
2022/02/16 03:02:10;;;;;;;51.87;32.67;;;;;;;;;;756759;183;614960;-61
2022/02/16 03:04:36;;;;;;;52.50;33.20;;;;;;;;;;752618;183;643041;-62
2022/02/16 03:07:02;;;;;;;51.87;32.77;;;;;;;;;;757623;184;629005;-61
2022/02/16 03:09:28;;;;;;;51.60;31.80;;;;;;;;;;762523;184;629108;-62
2022/02/16 03:11:53;;;;;;;53.73;32.30;;;;;;;;;;760948;183;632609;-59
2022/02/16 03:14:20;;;;;;;52.40;30.90;;;;;;;;;;752821;184;630826;-62
2022/02/16 03:16:46;;;;;;;50.80;32.97;;;;;;;;;;753261;183;634001;-62
2022/02/16 03:19:12;;;;;;;51.57;32.47;;;;;;;;;;758962;184;635217;-61
2022/02/16 03:21:38;;;;;;;53.80;32.53;;;;;;;;;;756362;184;682535;-62
2022/02/16 03:24:04;;;;;;;59.43;33.13;;;;;;;;;;760950;183;637052;-60
2022/02/16 03:26:30;;;;;;;47.73;31.17;;;;;;;;;;765730;183;619469;-62
2022/02/16 03:28:56;;;;;;;55.07;34.90;;;;;;;;;;757875;183;629564;-61
2022/02/16 03:31:21;;;;;;;47.20;31.77;;;;;;;;;;754610;183;629604;-61
2022/02/16 03:33:47;;;;;;;59.10;31.77;;;;;;;;;;765307;181;636096;-61
2022/02/16 03:36:14;;;;;;;52.30;34.63;;;;;;;;;;761872;183;634171;-61
2022/02/16 03:38:39;;;;;;;48.30;31.10;;;;;;;;;;766077;183;617532;-61
2022/02/16 03:41:05;;;;;;;54.17;33.33;;;;;;;;;;760639;183;613548;-62
2022/02/16 03:43:31;;;;;;;56.77;33.50;;;;;;;;;;756104;184;626062;-61
2022/02/16 03:45:57;;;;;;;50.50;32.67;;;;;;;;;;752161;184;629555;-62
2022/02/16 03:48:23;;;;;;;49.10;32.07;;;;;;;;;;760765;183;626129;-62
2022/02/16 03:50:48;;;;;;;55.27;31.37;;;;;;;;;;763270;182;637738;-62
2022/02/16 03:53:16;;;;;;;48.50;31.23;;;;;;;;;;758589;184;641965;-62
2022/02/16 03:55:40;;;;;;;52.10;30.58;;;;;;;;;;755392;184;644560;-62
2022/02/16 03:58:06;;;;;;;54.20;30.63;;;;;;;;;;761632;183;636215;-62
2022/02/16 04:00:32;;;;;;;44.90;28.50;;;;;;;;;;752408;183;789668;-62
2022/02/16 04:02:58;;;;;;;48.37;31.03;;;;;;;;;;757868;184;633352;-63
2022/02/16 04:05:24;;;;;;;52.17;31.87;;;;;;;;;;752390;184;629602;-62
2022/02/16 04:07:50;;;;;;;46.77;29.13;;;;;;;;;;752406;184;636531;-62
2022/02/16 04:10:15;;;;;;;52.00;29.42;;;;;;;;;;764011;184;615810;-62
2022/02/16 04:12:41;;;;;;;43.47;27.90;;;;;;;;;;758977;184;635833;-61
2022/02/16 04:15:08;;;;;;;36.73;25.73;;;;;;;;;;754537;184;617222;-61
2022/02/16 04:17:33;;;;;;;43.30;29.23;;;;;;;;;;763944;184;637271;-62
2022/02/16 04:19:59;;;;;;;54.83;32.30;;;;;;;;;;762196;184;634339;-61
2022/02/16 04:22:25;;;;;;;48.33;28.93;;;;;;;;;;742351;184;1486365;-62
2022/02/16 04:24:51;;;;;;;44.00;29.07;;;;;;;;;;757055;184;639234;-62
2022/02/16 04:27:16;;;;;;;48.57;27.90;;;;;;;;;;756346;184;618967;-64
2022/02/16 04:29:42;;;;;;;41.47;27.30;;;;;;;;;;759468;183;630003;-62
2022/02/16 04:32:09;;;;;;;45.93;27.00;;;;;;;;;;754432;183;637558;-61
2022/02/16 04:34:35;;;;;;;48.57;28.13;;;;;;;;;;755085;184;699180;-62
2022/02/16 04:37:00;;;;;;;45.50;29.73;;;;;;;;;;758128;181;648977;-62
2022/02/16 04:39:26;;;;;;;46.53;28.70;;;;;;;;;;757479;183;640588;-61
2022/02/16 04:41:52;;;;;;;50.30;28.63;;;;;;;;;;755926;184;665830;-62
2022/02/16 04:44:17;;;;;;;49.00;28.30;;;;;;;;;;759723;184;624993;-62
2022/02/16 04:46:44;;;;;;;46.17;29.47;;;;;;;;;;756289;184;629280;-62
2022/02/16 04:49:09;;;;;;;48.17;29.27;;;;;;;;;;757818;183;633204;-62
2022/02/16 04:51:35;;;;;;;47.57;28.50;;;;;;;;;;757393;184;706281;-60
2022/02/16 04:54:01;;;;;;;47.70;30.33;;;;;;;;;;764004;183;656171;-61
2022/02/16 04:56:27;;;;;;;47.13;28.70;;;;;;;;;;759603;183;641253;-61
2022/02/16 04:58:53;;;;;;;51.00;31.10;;;;;;;;;;756140;184;624658;-60
2022/02/16 05:01:20;;;;;;;52.83;28.37;;;;;;;;;;758101;184;628850;-61
2022/02/16 05:03:44;;;;;;;51.53;31.33;;;;;;;;;;755896;183;626822;-62
2022/02/16 05:06:11;;;;;;;44.77;28.37;;;;;;;;;;754863;184;637334;-61
2022/02/16 05:08:36;;;;;;;49.47;30.37;;;;;;;;;;762186;183;623516;-61
2022/02/16 05:11:02;;;;;;;47.43;30.10;;;;;;;;;;757421;184;635789;-61
2022/02/16 05:13:28;;;;;;;50.07;28.40;;;;;;;;;;756282;184;619549;-61
2022/02/16 05:15:54;;;;;;;45.50;29.30;;;;;;;;;;760211;182;622518;-60
2022/02/16 05:18:19;;;;;;;47.87;28.60;;;;;;;;;;756131;184;629634;-61
2022/02/16 05:20:45;;;;;;;50.67;27.33;;;;;;;;;;757197;184;642013;-61
2022/02/16 05:23:11;;;;;;;42.63;28.00;;;;;;;;;;759113;184;636889;-61
2022/02/16 05:25:37;;;;;;;42.07;24.07;;;;;;;;;;765705;184;629979;-63
2022/02/16 05:28:03;;;;;;;42.63;24.50;;;;;;;;;;755868;184;629938;-62
2022/02/16 05:30:29;;;;;;;42.00;26.40;;;;;;;;;;756789;184;626068;-62
2022/02/16 05:32:55;;;;;;;39.93;24.57;;;;;;;;;;760503;184;634997;-62
2022/02/16 05:35:20;;;;;;;40.43;25.27;;;;;;;;;;755147;184;627866;-62
2022/02/16 05:37:46;;;;;;;40.35;25.25;;;;;;;;;;757871;185;629019;-62
2022/02/16 05:40:12;;;;;;;38.00;25.20;;;;;;;;;;765466;184;630987;-62
2022/02/16 05:42:38;;;;;;;38.60;23.67;;;;;;;;;;753359;184;628105;-62
2022/02/16 05:45:04;;;;;;;35.80;24.50;;;;;;;;;;752807;184;626412;-62
2022/02/16 05:47:30;;;;;;;44.83;25.00;;;;;;;;;;751208;184;631525;-61
2022/02/16 05:49:56;;;;;;;40.30;24.67;;;;;;;;;;760778;183;634877;-61
2022/02/16 05:52:22;;;;;;;33.60;22.33;;;;;;;;;;754591;186;615042;-61
2022/02/16 05:54:47;;;;;;;37.80;25.17;;;;;;;;;;754730;185;629410;-62
2022/02/16 05:57:13;;;;;;;37.23;24.17;;;;;;;;;;758851;184;627298;-61
2022/02/16 05:59:39;;;;;;;44.07;23.43;;;;;;;;;;758505;184;633716;-61
2022/02/16 06:02:05;;;;;;;38.22;23.55;;;;;;;;;;756335;184;730339;-61
2022/02/16 06:04:31;;;;;;;40.00;24.30;;;;;;;;;;760449;184;625271;-61
2022/02/16 06:06:57;;;;;;;37.37;23.33;;;;;;;;;;756330;183;628998;-61
2022/02/16 06:09:22;;;;;;;41.73;25.20;;;;;;;;;;749851;183;636022;-60
2022/02/16 06:11:48;;;;;;;35.00;24.57;;;;;;;;;;761012;183;629225;-61
2022/02/16 06:14:14;;;;;;;42.20;24.57;;;;;;;;;;755234;183;618803;-61
2022/02/16 06:16:40;;;;;;;36.57;22.43;;;;;;;;;;752074;184;642356;-61
2022/02/16 06:19:06;;;;;;;37.63;23.87;;;;;;;;;;755557;184;625156;-62
2022/02/16 06:21:32;;;;;;;36.13;23.03;;;;;;;;;;763143;182;620177;-60
2022/02/16 06:23:58;;;;;;;36.80;23.50;;;;;;;;;;754169;184;632232;-61
2022/02/16 06:26:24;;;;;;;32.23;22.70;;;;;;;;;;752085;185;625192;-63
2022/02/16 06:28:50;;;;;;;42.40;24.60;;;;;;;;;;755886;184;617059;-61
2022/02/16 06:31:16;;;;;;;42.90;24.90;;;;;;;;;;763380;184;618044;-62
2022/02/16 06:33:42;;;;;;;39.10;24.20;;;;;;;;;;755978;184;619439;-59
2022/02/16 06:36:08;;;;;;;41.43;26.37;;;;;;;;;;762099;184;616355;-62
2022/02/16 06:38:34;;;;;;;47.53;29.30;;;;;;;;;;763254;184;627535;-62
2022/02/16 06:41:00;;;;;;;45.47;27.50;;;;;;;;;;755412;185;616631;-63
2022/02/16 06:43:25;;;;;;;45.23;25.93;;;;;;;;;;751755;185;625153;-61
2022/02/16 06:45:51;;;;;;;43.67;28.03;;;;;;;;;;756675;184;628432;-62
2022/02/16 06:48:17;;;;;;;42.80;27.83;;;;;;;;;;761527;183;697125;-63
2022/02/16 06:50:45;;;;;;;47.13;28.30;;;;;;;;;;753251;183;624351;-63
2022/02/16 06:53:09;;;;;;;47.17;28.40;;;;;;;;;;757023;184;618054;-63
2022/02/16 06:55:35;;;;;;;49.95;29.55;;;;;;;;;;757714;184;623691;-63
2022/02/16 06:58:01;;;;;;;49.40;28.83;;;;;;;;;;755085;184;754440;-61
2022/02/16 07:00:26;;;;;;;53.40;30.57;;;;;;;;;;760392;182;643861;-62
2022/02/16 07:02:52;;;;;;;51.40;32.13;;;;;;;;;;757473;182;634218;-64
2022/02/16 07:05:18;;;;;;;61.67;33.80;;;;;;;;;;756437;183;643247;-63
2022/02/16 07:07:44;;;;;;;66.73;35.93;;;;;;;;;;758426;184;636911;-64
2022/02/16 07:10:10;;;;;;;71.73;38.07;;;;;;;;;;752011;184;703973;-64
2022/02/16 07:12:36;;;;;;;76.27;37.93;;;;;;;;;;755112;185;617341;-64
2022/02/16 07:15:02;;;;;;;69.33;35.57;;;;;;;;;;761634;184;627689;-65
2022/02/16 07:17:28;;;;;;;79.10;37.00;;;;;;;;;;752442;184;626205;-65
2022/02/16 07:19:54;;;;;;;64.63;37.10;;;;;;;;;;749429;184;624107;-64
2022/02/16 07:22:20;;;;;;;80.33;44.13;;;;;;;;;;752840;184;642170;-66
2022/02/16 07:24:46;;;;;;;92.50;45.47;;;;;;;;;;757428;184;626346;-63
2022/02/16 07:27:12;;;;;;;118.03;59.47;;;;;;;;;;764230;184;637991;-64
2022/02/16 07:29:37;;;;;;;86.50;42.70;;;;;;;;;;763303;184;619244;-64
2022/02/16 07:32:03;;;;;;;77.10;40.57;;;;;;;;;;757985;182;619080;-63
2022/02/16 07:34:31;;;;;;;85.53;43.57;;;;;;;;;;754610;184;676789;-64
2022/02/16 07:36:55;;;;;;;87.97;39.60;;;;;;;;;;751784;186;624541;-63
2022/02/16 07:39:27;;;;;;;62.23;29.93;;;;;;;;;;754488;185;635001;-62
2022/02/16 07:41:47;;;;;;;60.63;31.17;;;;;;;;;;748392;184;617159;-61
2022/02/16 07:44:13;;;;;;;55.23;30.00;;;;;;;;;;757328;184;639628;-62
2022/02/16 07:46:39;;;;;;;47.90;25.10;;;;;;;;;;757253;184;617272;-62
2022/02/16 07:49:05;;;;;;;43.20;23.50;;;;;;;;;;758330;185;628124;-62
2022/02/16 07:51:30;;;;;;;35.70;20.50;;;;;;;;;;763827;183;638016;-61
2022/02/16 07:53:56;;;;;;;39.97;24.57;;;;;;;;;;755325;184;643129;-61
2022/02/16 07:56:22;;;;;;;27.27;15.00;;;;;;;;;;755454;185;614366;-61
2022/02/16 07:58:48;;;;;;;34.20;19.75;;;;;;;;;;761114;184;623527;-60
2022/02/16 08:01:14;;;;;;;31.20;18.17;;;;;;;;;;761085;184;649713;-60
2022/02/16 08:03:40;;;;;;;17.53;10.17;;;;;;;;;;756981;184;631231;-60
2022/02/16 08:06:05;;;;;;;25.10;14.80;;;;;;;;;;756783;184;625090;-61
2022/02/16 08:08:31;;;;;;;31.80;18.97;;;;;;;;;;764085;184;640756;-61
2022/02/16 08:10:57;;;;;;;19.67;10.23;;;;;;;;;;755793;184;853054;-60
2022/02/16 08:13:23;;;;;;;26.47;16.73;;;;;;;;;;760009;184;617355;-60
2022/02/16 08:15:49;;;;;;;27.23;16.63;;;;;;;;;;758142;183;634396;-60
2022/02/16 08:18:16;;;;;;;25.00;15.30;;;;;;;;;;755038;183;638506;-63
2022/02/16 08:20:42;;;;;;;21.67;14.83;;;;;;;;;;754638;184;660077;-60
2022/02/16 08:23:09;;;;;;;22.03;14.23;;;;;;;;;;753319;183;638737;-60
2022/02/16 08:25:34;;;;;;;28.20;15.40;;;;;;;;;;753443;184;629585;-60
2022/02/16 08:27:59;;;;;;;20.53;12.57;;;;;;;;;;754317;187;627697;-61
2022/02/16 08:30:25;;;;;;;21.33;15.13;;;;;;;;;;763812;183;644182;-60
2022/02/16 08:32:52;;;;;;;25.00;14.20;;;;;;;;;;758961;183;618192;-61
2022/02/16 08:35:17;;;;;;;25.33;12.93;;;;;;;;;;756671;184;634397;-60
2022/02/16 08:37:43;;;;;;;22.87;12.20;;;;;;;;;;766054;181;633828;-60
2022/02/16 08:40:10;;;;;;;17.50;11.90;;;;;;;;;;760386;184;632535;-60
2022/02/16 08:42:35;;;;;;;21.13;12.93;;;;;;;;;;753216;184;625706;-60
2022/02/16 08:45:01;;;;;;;25.63;15.97;;;;;;;;;;755949;184;615082;-60
2022/02/16 08:47:27;;;;;;;21.57;14.93;;;;;;;;;;751454;184;624979;-60
2022/02/16 08:49:52;;;;;;;19.80;12.93;;;;;;;;;;751304;185;686722;-60
2022/02/16 08:52:18;;;;;;;18.65;12.05;;;;;;;;;;758925;184;627846;-59
2022/02/16 08:54:44;;;;;;;21.67;11.80;;;;;;;;;;750574;187;629972;-60
2022/02/16 08:57:10;;;;;;;19.10;13.30;;;;;;;;;;764696;183;635039;-59
2022/02/16 08:59:36;;;;;;;18.73;12.85;;;;;;;;;;754118;184;636900;-59
2022/02/16 09:02:02;;;;;;;20.97;11.90;;;;;;;;;;762431;180;617135;-60
2022/02/16 09:04:28;;;;;;;18.33;12.40;;;;;;;;;;754517;184;620087;-60
2022/02/16 09:09:25;;;;;;;17.43;13.23;;;;;;;;;;757214;183;616383;-60
2022/02/16 09:11:51;;;;;;;19.60;10.93;;;;;;;;;;757102;183;633361;-60
2022/02/16 09:14:17;;;;;;;17.93;11.93;;;;;;;;;;749497;185;627786;-60
2022/02/16 09:16:43;;;;;;;15.60;10.93;;;;;;;;;;755842;184;619875;-61
2022/02/16 09:19:09;;;;;;;16.53;10.00;;;;;;;;;;757819;184;627094;-60
2022/02/16 09:21:35;;;;;;;16.77;9.97;;;;;;;;;;751716;184;637075;-61
2022/02/16 09:24:00;;;;;;;24.87;12.07;;;;;;;;;;763049;181;777610;-62
2022/02/16 09:26:28;;;;;;;14.63;9.73;;;;;;;;;;760641;183;631363;-60
2022/02/16 09:28:52;;;;;;;15.73;10.40;;;;;;;;;;763845;183;621995;-60
2022/02/16 09:31:18;;;;;;;15.43;9.80;;;;;;;;;;752607;183;631682;-60
2022/02/16 09:33:44;;;;;;;18.07;9.93;;;;;;;;;;757455;185;619253;-60
2022/02/16 09:36:10;;;;;;;15.63;10.57;;;;;;;;;;753578;184;691903;-60
2022/02/16 09:38:36;;;;;;;12.67;7.83;;;;;;;;;;754204;184;636093;-60
2022/02/16 09:41:01;;;;;;;10.80;8.40;;;;;;;;;;757029;186;642901;-60
2022/02/16 09:43:27;;;;;;;11.97;6.07;;;;;;;;;;746342;183;645768;-60
2022/02/16 09:45:55;;;;;;;14.27;8.73;;;;;;;;;;744893;185;627386;-60
2022/02/16 09:48:19;;;;;;;10.37;7.20;;;;;;;;;;753119;184;630054;-60
2022/02/16 09:50:45;;;;;;;12.40;7.97;;;;;;;;;;764475;183;623107;-60
2022/02/16 09:53:11;;;;;;;12.27;7.00;;;;;;;;;;760814;183;636321;-60
2022/02/16 09:55:37;;;;;;;11.13;6.70;;;;;;;;;;750574;183;621381;-60
2022/02/16 09:58:02;;;;;;;10.07;7.07;;;;;;;;;;764494;184;614941;-60
2022/02/16 10:00:28;;;;;;;10.43;5.87;;;;;;;;;;757914;184;622068;-60
2022/02/16 10:02:54;;;;;;;8.80;5.63;;;;;;;;;;759515;184;629413;-60
2022/02/16 10:05:20;;;;;;;8.27;4.80;;;;;;;;;;766505;184;624371;-61
2022/02/16 10:07:46;;;;;;;13.37;6.50;;;;;;;;;;760589;184;628081;-60
2022/02/16 10:10:14;;;;;;;9.07;5.80;;;;;;;;;;755876;184;635165;-61
2022/02/16 10:12:44;;;;;;;11.43;6.57;;;;;;;;;;755279;184;632263;-60
2022/02/16 10:15:06;;;;;;;9.97;5.73;;;;;;;;;;761601;182;624611;-60
2022/02/16 10:17:32;;;;;;;10.77;5.90;;;;;;;;;;742199;184;641503;-60
2022/02/16 10:19:58;;;;;;;9.90;5.20;;;;;;;;;;765442;184;645219;-60
2022/02/16 10:22:24;;;;;;;7.00;4.40;;;;;;;;;;755667;184;627551;-60
2022/02/16 10:24:50;;;;;;;7.17;5.33;;;;;;;;;;750122;184;731855;-60
2022/02/16 10:27:17;;;;;;;11.33;6.30;;;;;;;;;;759024;184;624676;-61
2022/02/16 10:29:43;;;;;;;12.97;6.57;;;;;;;;;;757739;185;635487;-60
2022/02/16 10:32:10;;;;;;;8.33;6.50;;;;;;;;;;756957;184;632874;-61
2022/02/16 10:34:41;;;;;;;8.87;5.73;;;;;;;;;;756495;181;639083;-60
2022/02/16 10:37:08;;;;;;;8.30;5.83;;;;;;;;;;759913;183;624375;-60
2022/02/16 10:39:34;;;;;;;9.70;6.33;;;;;;;;;;761815;183;620028;-60
2022/02/16 10:42:00;;;;;;;11.70;7.13;;;;;;;;;;758282;183;624888;-60
2022/02/16 10:44:27;;;;;;;11.00;5.93;;;;;;;;;;755262;185;629898;-61
2022/02/16 10:46:57;;;;;;;8.37;5.50;;;;;;;;;;758590;183;631646;-60
2022/02/16 10:49:23;;;;;;;10.40;6.43;;;;;;;;;;749132;187;627069;-60
2022/02/16 10:51:49;;;;;;;9.80;6.70;;;;;;;;;;757459;183;641680;-61
2022/02/16 10:54:17;;;;;;;12.65;7.80;;;;;;;;;;747317;184;636595;-60
2022/02/16 10:56:43;;;;;;;13.10;7.20;;;;;;;;;;755827;184;614491;-60
2022/02/16 10:59:09;;;;;;;11.97;5.90;;;;;;;;;;762327;183;640972;-61
2022/02/16 11:01:35;;;;;;;11.50;7.70;;;;;;;;;;761099;183;632233;-61
2022/02/16 11:04:01;;;;;;;11.27;8.37;;;;;;;;;;760063;185;634054;-60
2022/02/16 11:06:27;;;;;;;11.73;7.87;;;;;;;;;;749010;183;631265;-60
2022/02/16 11:08:54;;;;;;;12.87;6.20;;;;;;;;;;748944;184;897463;-60
2022/02/16 11:11:18;;;;;;;12.97;7.93;;;;;;;;;;753943;184;613458;-62
2022/02/16 11:13:44;;;;;;;12.20;7.57;;;;;;;;;;755742;185;624182;-60
2022/02/16 11:16:10;;;;;;;12.70;7.40;;;;;;;;;;755824;183;617446;-61
2022/02/16 11:18:42;;;;;;;13.13;6.63;;;;;;;;;;760860;183;635108;-60
2022/02/16 11:21:08;;;;;;;10.87;6.70;;;;;;;;;;753876;183;624364;-61
2022/02/16 11:23:36;;;;;;;10.17;6.07;;;;;;;;;;760196;184;619783;-60
2022/02/16 11:26:01;;;;;;;11.43;7.50;;;;;;;;;;758417;183;628402;-61
2022/02/16 11:28:27;;;;;;;10.47;6.20;;;;;;;;;;752146;184;632685;-60
2022/02/16 11:30:52;;;;;;;10.73;7.00;;;;;;;;;;766236;183;633692;-61
2022/02/16 11:33:19;;;;;;;11.83;7.10;;;;;;;;;;754407;185;628990;-61
2022/02/16 11:35:46;;;;;;;11.20;5.60;;;;;;;;;;761068;184;629226;-61
2022/02/16 11:38:12;;;;;;;11.70;7.40;;;;;;;;;;766935;184;627667;-60
2022/02/16 11:40:39;;;;;;;10.23;6.40;;;;;;;;;;752636;184;636453;-61
2022/02/16 11:43:05;;;;;;;11.77;7.10;;;;;;;;;;752879;184;637156;-61
2022/02/16 11:45:37;;;;;;;11.67;6.93;;;;;;;;;;758353;184;751764;-60
2022/02/16 11:48:03;;;;;;;6.50;3.10;;;;;;;;;;757980;183;615782;-61
2022/02/16 11:50:32;;;;;;;12.02;7.03;;;;;;;;;;750522;183;626437;-60
2022/02/16 11:52:57;;;;;;;11.10;6.50;;;;;;;;;;759982;183;618723;-61
2022/02/16 11:55:24;;;;;;;14.00;6.27;;;;;;;;;;761567;184;625579;-61
2022/02/16 11:57:50;;;;;;;10.07;5.80;;;;;;;;;;753761;184;626879;-61
2022/02/16 12:00:26;;;;;;;10.10;6.63;;;;;;;;;;759150;184;617027;-61
2022/02/16 12:03:10;;;;;;;11.87;6.47;;;;;;;;;;764284;184;632181;-60
2022/02/16 12:05:45;;;;;;;11.37;6.07;;;;;;;;;;759128;184;633547;-60
2022/02/16 12:08:12;;;;;;;9.27;7.20;;;;;;;;;;761719;184;620255;-61
2022/02/16 12:10:39;;;;;;;9.53;6.10;;;;;;;;;;767921;184;617181;-60
2022/02/16 12:13:05;;;;;;;9.90;6.10;;;;;;;;;;752241;184;632614;-61
2022/02/16 12:15:31;;;;;;;11.80;6.30;;;;;;;;;;757481;183;624176;-61
2022/02/16 12:17:56;;;;;;;9.40;6.07;;;;;;;;;;761704;184;621646;-62
2022/02/16 12:20:24;;;;;;;9.87;5.97;;;;;;;;;;762988;184;623777;-60
2022/02/16 12:22:50;;;;;;;8.03;5.40;;;;;;;;;;750504;184;761341;-61
2022/02/16 12:25:16;;;;;;;8.93;5.73;;;;;;;;;;748639;184;630362;-61
2022/02/16 12:27:42;;;;;;;9.73;5.80;;;;;;;;;;756107;183;638454;-61
2022/02/16 12:30:07;;;;;;;8.50;5.93;;;;;;;;;;754893;184;664571;-61
2022/02/16 12:32:33;;;;;;;8.00;5.37;;;;;;;;;;758969;184;633543;-61
2022/02/16 12:35:01;;;;;;;6.20;4.43;;;;;;;;;;760125;184;728547;-61
2022/02/16 12:37:27;;;;;;;9.80;4.70;;;;;;;;;;755004;184;629095;-60
2022/02/16 12:39:55;;;;;;;10.87;4.30;;;;;;;;;;757950;184;735470;-60
2022/02/16 12:42:19;;;;;;;6.20;4.30;;;;;;;;;;757849;184;628114;-60
2022/02/16 12:44:45;;;;;;;8.30;4.50;;;;;;;;;;756823;184;617512;-61
2022/02/16 12:47:11;;;;;;;6.10;3.47;;;;;;;;;;754815;184;617513;-61
2022/02/16 12:49:39;;;;;;;6.43;4.73;;;;;;;;;;753703;184;641892;-59
2022/02/16 12:52:03;;;;;;;6.20;4.20;;;;;;;;;;759305;184;635558;-60
2022/02/16 12:54:29;;;;;;;6.43;3.90;;;;;;;;;;742835;184;640600;-60
2022/02/16 12:56:57;;;;;;;7.37;4.67;;;;;;;;;;748565;184;635845;-60
2022/02/16 12:59:23;;;;;;;6.23;3.80;;;;;;;;;;758442;183;619152;-61
2022/02/16 13:01:49;;;;;;;10.20;4.50;;;;;;;;;;760007;183;625912;-60
2022/02/16 13:04:15;;;;;;;5.00;3.67;;;;;;;;;;754992;183;639270;-61
2022/02/16 13:06:42;;;;;;;4.90;3.30;;;;;;;;;;756202;183;618372;-60
2022/02/16 13:09:08;;;;;;;5.07;3.30;;;;;;;;;;757594;183;626076;-60
2022/02/16 13:11:50;;;;;;;5.50;4.00;;;;;;;;;;755311;184;636090;-61
2022/02/16 13:14:14;;;;;;;5.67;2.90;;;;;;;;;;751065;184;636288;-60
2022/02/16 13:16:39;;;;;;;3.43;2.50;;;;;;;;;;760321;184;781439;-60
2022/02/16 13:19:05;;;;;;;4.83;2.87;;;;;;;;;;762668;183;625155;-60
2022/02/16 13:21:31;;;;;;;3.80;2.77;;;;;;;;;;754967;184;642828;-60
2022/02/16 13:24:02;;;;;;;4.37;3.10;;;;;;;;;;752109;183;614634;-60
2022/02/16 13:26:28;;;;;;;6.67;2.90;;;;;;;;;;766052;183;626328;-60
2022/02/16 13:28:59;;;;;;;3.33;2.47;;;;;;;;;;759878;183;637587;-60
2022/02/16 13:31:28;;;;;;;4.10;2.80;;;;;;;;;;752449;184;625170;-61
2022/02/16 13:33:54;;;;;;;3.67;2.20;;;;;;;;;;750875;185;620297;-60
2022/02/16 13:36:24;;;;;;;4.67;2.40;;;;;;;;;;759177;183;633594;-60
2022/02/16 13:38:45;;;;;;;3.50;2.40;;;;;;;;;;754167;184;647853;-61
2022/02/16 13:41:11;;;;;;;4.27;2.00;;;;;;;;;;747890;185;623988;-60
2022/02/16 13:43:41;;;;;;;5.07;2.40;;;;;;;;;;759816;183;622660;-60
2022/02/16 13:46:07;;;;;;;3.50;2.53;;;;;;;;;;760140;184;647143;-60
2022/02/16 13:48:33;;;;;;;4.33;2.20;;;;;;;;;;751736;184;635170;-60
2022/02/16 13:50:58;;;;;;;2.53;1.23;;;;;;;;;;745440;184;640093;-60
2022/02/16 13:53:29;;;;;;;5.13;2.30;;;;;;;;;;758530;183;617143;-60
2022/02/16 13:55:55;;;;;;;5.00;1.73;;;;;;;;;;758766;184;635599;-61
2022/02/16 13:58:22;;;;;;;6.83;2.27;;;;;;;;;;752264;184;616900;-60
2022/02/16 14:00:48;;;;;;;3.13;1.77;;;;;;;;;;761593;184;620188;-60
2022/02/16 14:03:15;;;;;;;3.90;1.63;;;;;;;;;;752136;184;616378;-61
2022/02/16 14:05:40;;;;;;;3.00;1.83;;;;;;;;;;755880;184;635402;-61
2022/02/16 14:08:06;;;;;;;4.10;2.63;;;;;;;;;;755501;183;732124;-60